sensor_id;sensor_type;location;lat;lon;timestamp;temperature;humidity
48998;DHT22;34807;51.456;7.244;2023-11-21T00:01:16;7.90;99.90
48998;DHT22;34807;51.456;7.244;2023-11-21T00:03:42;7.90;99.90
48998;DHT22;34807;51.456;7.244;2023-11-21T00:06:07;7.90;99.90
48998;DHT22;34807;51.456;7.244;2023-11-21T00:08:36;7.90;99.90
48998;DHT22;34807;51.456;7.244;2023-11-21T00:11:02;7.90;99.90
48998;DHT22;34807;51.456;7.244;2023-11-21T00:13:31;7.90;99.90
48998;DHT22;34807;51.456;7.244;2023-11-21T00:15:56;7.90;99.90
48998;DHT22;34807;51.456;7.244;2023-11-21T00:18:22;7.90;99.90
48998;DHT22;34807;51.456;7.244;2023-11-21T00:20:47;7.90;99.90
48998;DHT22;34807;51.456;7.244;2023-11-21T00:23:12;7.90;99.90
48998;DHT22;34807;51.456;7.244;2023-11-21T00:25:38;7.90;99.90
48998;DHT22;34807;51.456;7.244;2023-11-21T00:28:03;7.90;99.90
48998;DHT22;34807;51.456;7.244;2023-11-21T00:30:29;7.90;99.90
48998;DHT22;34807;51.456;7.244;2023-11-21T00:32:56;7.90;99.90
48998;DHT22;34807;51.456;7.244;2023-11-21T00:35:21;7.90;99.90
48998;DHT22;34807;51.456;7.244;2023-11-21T00:37:47;7.90;99.90
48998;DHT22;34807;51.456;7.244;2023-11-21T00:40:15;7.90;99.90
48998;DHT22;34807;51.456;7.244;2023-11-21T00:42:40;7.90;99.90
48998;DHT22;34807;51.456;7.244;2023-11-21T00:45:06;7.90;99.90
48998;DHT22;34807;51.456;7.244;2023-11-21T00:47:32;7.90;99.90
48998;DHT22;34807;51.456;7.244;2023-11-21T00:49:57;7.90;99.90
48998;DHT22;34807;51.456;7.244;2023-11-21T00:52:23;8.00;99.90
48998;DHT22;34807;51.456;7.244;2023-11-21T00:54:48;8.00;99.90
48998;DHT22;34807;51.456;7.244;2023-11-21T00:57:14;8.00;99.90
48998;DHT22;34807;51.456;7.244;2023-11-21T00:59:40;7.90;99.90
48998;DHT22;34807;51.456;7.244;2023-11-21T01:02:05;8.00;99.90
48998;DHT22;34807;51.456;7.244;2023-11-21T01:04:31;8.00;99.90
48998;DHT22;34807;51.456;7.244;2023-11-21T01:06:59;8.00;99.90
48998;DHT22;34807;51.456;7.244;2023-11-21T01:09:25;8.00;99.90
48998;DHT22;34807;51.456;7.244;2023-11-21T01:11:51;8.00;99.90
48998;DHT22;34807;51.456;7.244;2023-11-21T01:14:17;8.00;99.90
48998;DHT22;34807;51.456;7.244;2023-11-21T01:16:43;8.00;99.90
48998;DHT22;34807;51.456;7.244;2023-11-21T01:19:08;8.00;99.90
48998;DHT22;34807;51.456;7.244;2023-11-21T01:21:34;8.00;99.90
48998;DHT22;34807;51.456;7.244;2023-11-21T01:24:00;8.00;99.90
48998;DHT22;34807;51.456;7.244;2023-11-21T01:26:25;8.00;99.90
48998;DHT22;34807;51.456;7.244;2023-11-21T01:28:51;8.00;99.90
48998;DHT22;34807;51.456;7.244;2023-11-21T01:31:16;8.00;99.90
48998;DHT22;34807;51.456;7.244;2023-11-21T01:33:42;8.00;99.90
48998;DHT22;34807;51.456;7.244;2023-11-21T01:36:07;8.00;99.90
48998;DHT22;34807;51.456;7.244;2023-11-21T01:38:33;8.00;99.90
48998;DHT22;34807;51.456;7.244;2023-11-21T01:40:59;8.00;99.90
48998;DHT22;34807;51.456;7.244;2023-11-21T01:43:28;8.00;99.90
48998;DHT22;34807;51.456;7.244;2023-11-21T01:45:55;8.00;99.90
48998;DHT22;34807;51.456;7.244;2023-11-21T01:48:24;8.00;99.90
48998;DHT22;34807;51.456;7.244;2023-11-21T01:50:50;8.00;99.90
48998;DHT22;34807;51.456;7.244;2023-11-21T01:53:16;8.10;99.90
48998;DHT22;34807;51.456;7.244;2023-11-21T01:55:41;8.00;99.90
48998;DHT22;34807;51.456;7.244;2023-11-21T01:58:07;8.00;99.90
48998;DHT22;34807;51.456;7.244;2023-11-21T02:00:33;8.00;99.90
48998;DHT22;34807;51.456;7.244;2023-11-21T02:02:59;8.00;99.90
48998;DHT22;34807;51.456;7.244;2023-11-21T02:05:25;8.00;99.90
48998;DHT22;34807;51.456;7.244;2023-11-21T02:07:51;8.00;99.90
48998;DHT22;34807;51.456;7.244;2023-11-21T02:10:18;8.10;99.90
48998;DHT22;34807;51.456;7.244;2023-11-21T02:12:48;8.00;99.90
48998;DHT22;34807;51.456;7.244;2023-11-21T02:15:14;8.10;99.90
48998;DHT22;34807;51.456;7.244;2023-11-21T02:17:46;8.00;99.90
48998;DHT22;34807;51.456;7.244;2023-11-21T02:20:19;8.10;99.90
48998;DHT22;34807;51.456;7.244;2023-11-21T02:22:49;8.10;99.90
48998;DHT22;34807;51.456;7.244;2023-11-21T02:25:15;8.10;99.90
48998;DHT22;34807;51.456;7.244;2023-11-21T02:27:41;8.10;99.90
48998;DHT22;34807;51.456;7.244;2023-11-21T02:30:07;8.10;99.90
48998;DHT22;34807;51.456;7.244;2023-11-21T02:32:33;8.10;99.90
48998;DHT22;34807;51.456;7.244;2023-11-21T02:34:59;8.10;99.90
48998;DHT22;34807;51.456;7.244;2023-11-21T02:37:28;8.10;99.90
48998;DHT22;34807;51.456;7.244;2023-11-21T02:39:53;8.10;99.90
48998;DHT22;34807;51.456;7.244;2023-11-21T02:42:19;8.10;99.90
48998;DHT22;34807;51.456;7.244;2023-11-21T02:44:44;8.10;99.90
48998;DHT22;34807;51.456;7.244;2023-11-21T02:47:10;8.10;99.90
48998;DHT22;34807;51.456;7.244;2023-11-21T02:49:35;8.10;99.90
48998;DHT22;34807;51.456;7.244;2023-11-21T02:52:01;8.20;99.90
48998;DHT22;34807;51.456;7.244;2023-11-21T02:54:26;8.10;99.90
48998;DHT22;34807;51.456;7.244;2023-11-21T02:56:52;8.10;99.90
48998;DHT22;34807;51.456;7.244;2023-11-21T02:59:18;8.10;99.90
48998;DHT22;34807;51.456;7.244;2023-11-21T03:01:44;8.10;99.90
48998;DHT22;34807;51.456;7.244;2023-11-21T03:04:10;8.10;99.90
48998;DHT22;34807;51.456;7.244;2023-11-21T03:06:36;8.10;99.90
48998;DHT22;34807;51.456;7.244;2023-11-21T03:09:01;8.10;99.90
48998;DHT22;34807;51.456;7.244;2023-11-21T03:11:27;8.20;99.90
48998;DHT22;34807;51.456;7.244;2023-11-21T03:13:52;8.10;99.90
48998;DHT22;34807;51.456;7.244;2023-11-21T03:16:18;8.10;99.90
48998;DHT22;34807;51.456;7.244;2023-11-21T03:18:44;8.20;99.90
48998;DHT22;34807;51.456;7.244;2023-11-21T03:21:10;8.20;99.90
48998;DHT22;34807;51.456;7.244;2023-11-21T03:23:35;8.10;99.90
48998;DHT22;34807;51.456;7.244;2023-11-21T03:26:01;8.20;99.90
48998;DHT22;34807;51.456;7.244;2023-11-21T03:28:27;8.20;99.90
48998;DHT22;34807;51.456;7.244;2023-11-21T03:30:53;8.10;99.90
48998;DHT22;34807;51.456;7.244;2023-11-21T03:33:18;8.10;99.90
48998;DHT22;34807;51.456;7.244;2023-11-21T03:35:44;8.20;99.90
48998;DHT22;34807;51.456;7.244;2023-11-21T03:38:10;8.10;99.90
48998;DHT22;34807;51.456;7.244;2023-11-21T03:40:35;8.10;99.90
48998;DHT22;34807;51.456;7.244;2023-11-21T03:43:01;8.10;99.90
48998;DHT22;34807;51.456;7.244;2023-11-21T03:45:26;8.10;99.90
48998;DHT22;34807;51.456;7.244;2023-11-21T03:47:52;8.10;99.90
48998;DHT22;34807;51.456;7.244;2023-11-21T03:50:17;8.10;99.90
48998;DHT22;34807;51.456;7.244;2023-11-21T03:52:43;8.10;99.90
48998;DHT22;34807;51.456;7.244;2023-11-21T03:55:08;8.10;99.90
48998;DHT22;34807;51.456;7.244;2023-11-21T03:57:35;8.10;99.90
48998;DHT22;34807;51.456;7.244;2023-11-21T04:00:01;8.10;99.90
48998;DHT22;34807;51.456;7.244;2023-11-21T04:02:29;8.10;99.90
48998;DHT22;34807;51.456;7.244;2023-11-21T04:04:56;8.10;99.90
48998;DHT22;34807;51.456;7.244;2023-11-21T04:07:22;8.10;99.90
48998;DHT22;34807;51.456;7.244;2023-11-21T04:09:47;8.10;99.90
48998;DHT22;34807;51.456;7.244;2023-11-21T04:12:13;8.20;99.90
48998;DHT22;34807;51.456;7.244;2023-11-21T04:14:38;8.20;99.90
48998;DHT22;34807;51.456;7.244;2023-11-21T04:17:04;8.20;99.90
48998;DHT22;34807;51.456;7.244;2023-11-21T04:19:29;8.10;99.90
48998;DHT22;34807;51.456;7.244;2023-11-21T04:21:55;8.20;99.90
48998;DHT22;34807;51.456;7.244;2023-11-21T04:24:20;8.20;99.90
48998;DHT22;34807;51.456;7.244;2023-11-21T04:26:46;8.20;99.90
48998;DHT22;34807;51.456;7.244;2023-11-21T04:29:12;8.20;99.90
48998;DHT22;34807;51.456;7.244;2023-11-21T04:31:37;8.20;99.90
48998;DHT22;34807;51.456;7.244;2023-11-21T04:34:03;8.20;99.90
48998;DHT22;34807;51.456;7.244;2023-11-21T04:36:31;8.20;99.90
48998;DHT22;34807;51.456;7.244;2023-11-21T04:38:57;8.20;99.90
48998;DHT22;34807;51.456;7.244;2023-11-21T04:41:22;8.20;99.90
48998;DHT22;34807;51.456;7.244;2023-11-21T04:43:48;8.20;99.90
48998;DHT22;34807;51.456;7.244;2023-11-21T04:46:14;8.20;99.90
48998;DHT22;34807;51.456;7.244;2023-11-21T04:48:39;8.20;99.90
48998;DHT22;34807;51.456;7.244;2023-11-21T04:51:05;8.20;99.90
48998;DHT22;34807;51.456;7.244;2023-11-21T04:53:31;8.20;99.90
48998;DHT22;34807;51.456;7.244;2023-11-21T04:55:56;8.20;99.90
48998;DHT22;34807;51.456;7.244;2023-11-21T04:58:22;8.20;99.90
48998;DHT22;34807;51.456;7.244;2023-11-21T05:00:47;8.20;99.90
48998;DHT22;34807;51.456;7.244;2023-11-21T05:03:13;8.10;99.90
48998;DHT22;34807;51.456;7.244;2023-11-21T05:05:38;8.10;99.90
48998;DHT22;34807;51.456;7.244;2023-11-21T05:08:04;8.10;99.90
48998;DHT22;34807;51.456;7.244;2023-11-21T05:10:30;8.10;99.90
48998;DHT22;34807;51.456;7.244;2023-11-21T05:12:55;8.10;99.90
48998;DHT22;34807;51.456;7.244;2023-11-21T05:15:21;8.10;99.90
48998;DHT22;34807;51.456;7.244;2023-11-21T05:17:46;8.10;99.90
48998;DHT22;34807;51.456;7.244;2023-11-21T05:20:15;8.10;99.90
48998;DHT22;34807;51.456;7.244;2023-11-21T05:22:43;8.10;99.90
48998;DHT22;34807;51.456;7.244;2023-11-21T05:25:09;8.10;99.90
48998;DHT22;34807;51.456;7.244;2023-11-21T05:27:35;8.10;99.90
48998;DHT22;34807;51.456;7.244;2023-11-21T05:30:03;8.10;99.90
48998;DHT22;34807;51.456;7.244;2023-11-21T05:32:38;8.10;99.90
48998;DHT22;34807;51.456;7.244;2023-11-21T05:35:04;8.10;99.90
48998;DHT22;34807;51.456;7.244;2023-11-21T05:37:35;8.10;99.90
48998;DHT22;34807;51.456;7.244;2023-11-21T05:40:01;8.10;99.90
48998;DHT22;34807;51.456;7.244;2023-11-21T05:42:31;8.10;99.90
48998;DHT22;34807;51.456;7.244;2023-11-21T05:44:57;8.00;99.90
48998;DHT22;34807;51.456;7.244;2023-11-21T05:47:24;8.00;99.90
48998;DHT22;34807;51.456;7.244;2023-11-21T05:49:51;8.00;99.90
48998;DHT22;34807;51.456;7.244;2023-11-21T05:52:17;8.00;99.90
48998;DHT22;34807;51.456;7.244;2023-11-21T05:54:43;8.00;99.90
48998;DHT22;34807;51.456;7.244;2023-11-21T05:57:09;8.00;99.90
48998;DHT22;34807;51.456;7.244;2023-11-21T05:59:34;8.00;99.90
48998;DHT22;34807;51.456;7.244;2023-11-21T06:02:00;8.00;99.90
48998;DHT22;34807;51.456;7.244;2023-11-21T06:04:25;8.00;99.90
48998;DHT22;34807;51.456;7.244;2023-11-21T06:06:51;8.00;99.90
48998;DHT22;34807;51.456;7.244;2023-11-21T06:09:17;8.00;99.90
48998;DHT22;34807;51.456;7.244;2023-11-21T06:11:43;8.00;99.90
48998;DHT22;34807;51.456;7.244;2023-11-21T06:14:08;8.00;99.90
48998;DHT22;34807;51.456;7.244;2023-11-21T06:16:34;8.00;99.90
48998;DHT22;34807;51.456;7.244;2023-11-21T06:19:00;8.00;99.90
48998;DHT22;34807;51.456;7.244;2023-11-21T06:21:26;8.00;99.90
48998;DHT22;34807;51.456;7.244;2023-11-21T06:23:52;8.00;99.90
48998;DHT22;34807;51.456;7.244;2023-11-21T06:26:18;8.00;99.90
48998;DHT22;34807;51.456;7.244;2023-11-21T06:28:44;8.00;99.90
48998;DHT22;34807;51.456;7.244;2023-11-21T06:31:09;8.00;99.90
48998;DHT22;34807;51.456;7.244;2023-11-21T06:33:36;8.00;99.90
48998;DHT22;34807;51.456;7.244;2023-11-21T06:36:01;8.00;99.90
48998;DHT22;34807;51.456;7.244;2023-11-21T06:38:31;8.00;99.90
48998;DHT22;34807;51.456;7.244;2023-11-21T06:40:57;8.00;99.90
48998;DHT22;34807;51.456;7.244;2023-11-21T06:43:23;8.10;99.90
48998;DHT22;34807;51.456;7.244;2023-11-21T06:45:49;8.10;99.90
48998;DHT22;34807;51.456;7.244;2023-11-21T06:48:14;8.00;99.90
48998;DHT22;34807;51.456;7.244;2023-11-21T06:50:40;8.10;99.90
48998;DHT22;34807;51.456;7.244;2023-11-21T06:53:05;8.00;99.90
48998;DHT22;34807;51.456;7.244;2023-11-21T06:55:32;8.00;99.90
48998;DHT22;34807;51.456;7.244;2023-11-21T06:57:58;8.00;99.90
48998;DHT22;34807;51.456;7.244;2023-11-21T07:00:25;8.00;99.90
48998;DHT22;34807;51.456;7.244;2023-11-21T07:02:50;8.00;99.90
48998;DHT22;34807;51.456;7.244;2023-11-21T07:05:16;8.00;99.90
48998;DHT22;34807;51.456;7.244;2023-11-21T07:07:45;8.00;99.90
48998;DHT22;34807;51.456;7.244;2023-11-21T07:10:11;8.00;99.90
48998;DHT22;34807;51.456;7.244;2023-11-21T07:12:37;8.00;99.90
48998;DHT22;34807;51.456;7.244;2023-11-21T07:15:03;8.00;99.90
48998;DHT22;34807;51.456;7.244;2023-11-21T07:17:30;8.00;99.90
48998;DHT22;34807;51.456;7.244;2023-11-21T07:19:56;8.00;99.90
48998;DHT22;34807;51.456;7.244;2023-11-21T07:22:22;8.00;99.90
48998;DHT22;34807;51.456;7.244;2023-11-21T07:24:48;8.00;99.90
48998;DHT22;34807;51.456;7.244;2023-11-21T07:27:14;8.00;99.90
48998;DHT22;34807;51.456;7.244;2023-11-21T07:29:39;8.00;99.90
48998;DHT22;34807;51.456;7.244;2023-11-21T07:32:06;8.00;99.90
48998;DHT22;34807;51.456;7.244;2023-11-21T07:34:31;8.00;99.90
48998;DHT22;34807;51.456;7.244;2023-11-21T07:36:56;8.10;99.90
48998;DHT22;34807;51.456;7.244;2023-11-21T07:39:22;8.00;99.90
48998;DHT22;34807;51.456;7.244;2023-11-21T07:41:47;8.10;99.90
48998;DHT22;34807;51.456;7.244;2023-11-21T07:44:16;8.00;99.90
48998;DHT22;34807;51.456;7.244;2023-11-21T07:46:42;8.10;99.90
48998;DHT22;34807;51.456;7.244;2023-11-21T07:49:08;8.00;99.90
48998;DHT22;34807;51.456;7.244;2023-11-21T07:51:34;8.10;99.90
48998;DHT22;34807;51.456;7.244;2023-11-21T07:53:59;8.10;99.90
48998;DHT22;34807;51.456;7.244;2023-11-21T07:56:26;8.10;99.90
48998;DHT22;34807;51.456;7.244;2023-11-21T07:58:51;8.10;99.90
48998;DHT22;34807;51.456;7.244;2023-11-21T08:01:17;8.10;99.90
48998;DHT22;34807;51.456;7.244;2023-11-21T08:03:42;8.10;99.90
48998;DHT22;34807;51.456;7.244;2023-11-21T08:06:09;8.10;99.90
48998;DHT22;34807;51.456;7.244;2023-11-21T08:08:35;8.20;99.90
48998;DHT22;34807;51.456;7.244;2023-11-21T08:11:00;8.20;99.90
48998;DHT22;34807;51.456;7.244;2023-11-21T08:13:27;8.20;99.90
48998;DHT22;34807;51.456;7.244;2023-11-21T08:15:57;8.20;99.90
48998;DHT22;34807;51.456;7.244;2023-11-21T08:18:27;8.20;99.90
48998;DHT22;34807;51.456;7.244;2023-11-21T08:20:52;8.30;99.90
48998;DHT22;34807;51.456;7.244;2023-11-21T08:23:20;8.30;99.90
48998;DHT22;34807;51.456;7.244;2023-11-21T08:25:46;8.30;99.90
48998;DHT22;34807;51.456;7.244;2023-11-21T08:28:12;8.30;99.90
48998;DHT22;34807;51.456;7.244;2023-11-21T08:30:37;8.30;99.90
48998;DHT22;34807;51.456;7.244;2023-11-21T08:33:03;8.30;99.90
48998;DHT22;34807;51.456;7.244;2023-11-21T08:35:29;8.40;99.90
48998;DHT22;34807;51.456;7.244;2023-11-21T08:37:55;8.40;99.90
48998;DHT22;34807;51.456;7.244;2023-11-21T08:40:20;8.40;99.90
48998;DHT22;34807;51.456;7.244;2023-11-21T08:42:46;8.40;99.90
48998;DHT22;34807;51.456;7.244;2023-11-21T08:45:15;8.40;99.90
48998;DHT22;34807;51.456;7.244;2023-11-21T08:47:42;8.40;99.90
48998;DHT22;34807;51.456;7.244;2023-11-21T08:50:09;8.40;99.90
48998;DHT22;34807;51.456;7.244;2023-11-21T08:52:35;8.40;99.90
48998;DHT22;34807;51.456;7.244;2023-11-21T08:55:02;8.40;99.90
48998;DHT22;34807;51.456;7.244;2023-11-21T08:57:35;8.50;99.90
48998;DHT22;34807;51.456;7.244;2023-11-21T09:00:02;8.40;99.90
48998;DHT22;34807;51.456;7.244;2023-11-21T09:02:28;8.50;99.90
48998;DHT22;34807;51.456;7.244;2023-11-21T09:04:53;8.50;99.90
48998;DHT22;34807;51.456;7.244;2023-11-21T09:07:19;8.50;99.90
48998;DHT22;34807;51.456;7.244;2023-11-21T09:09:48;8.50;99.90
48998;DHT22;34807;51.456;7.244;2023-11-21T09:12:15;8.50;99.90
48998;DHT22;34807;51.456;7.244;2023-11-21T09:14:40;8.50;99.90
48998;DHT22;34807;51.456;7.244;2023-11-21T09:17:06;8.60;99.90
48998;DHT22;34807;51.456;7.244;2023-11-21T09:19:36;8.50;99.90
48998;DHT22;34807;51.456;7.244;2023-11-21T09:22:02;8.60;99.90
48998;DHT22;34807;51.456;7.244;2023-11-21T09:24:27;8.60;99.90
48998;DHT22;34807;51.456;7.244;2023-11-21T09:26:53;8.60;99.90
48998;DHT22;34807;51.456;7.244;2023-11-21T09:29:18;8.60;99.90
48998;DHT22;34807;51.456;7.244;2023-11-21T09:31:44;8.60;99.90
48998;DHT22;34807;51.456;7.244;2023-11-21T09:34:10;8.70;99.90
48998;DHT22;34807;51.456;7.244;2023-11-21T09:36:36;8.70;99.90
48998;DHT22;34807;51.456;7.244;2023-11-21T09:39:04;8.70;99.90
48998;DHT22;34807;51.456;7.244;2023-11-21T09:41:34;8.70;99.90
48998;DHT22;34807;51.456;7.244;2023-11-21T09:44:05;8.70;99.90
48998;DHT22;34807;51.456;7.244;2023-11-21T09:46:36;8.70;99.90
48998;DHT22;34807;51.456;7.244;2023-11-21T09:49:04;8.80;99.90
48998;DHT22;34807;51.456;7.244;2023-11-21T09:51:33;8.80;99.90
48998;DHT22;34807;51.456;7.244;2023-11-21T09:54:03;8.80;99.90
48998;DHT22;34807;51.456;7.244;2023-11-21T09:56:34;8.80;99.90
48998;DHT22;34807;51.456;7.244;2023-11-21T09:59:01;8.80;99.90
48998;DHT22;34807;51.456;7.244;2023-11-21T10:01:31;8.80;99.90
48998;DHT22;34807;51.456;7.244;2023-11-21T10:03:57;8.80;99.90
48998;DHT22;34807;51.456;7.244;2023-11-21T10:06:23;8.80;99.90
48998;DHT22;34807;51.456;7.244;2023-11-21T10:08:50;8.90;99.90
48998;DHT22;34807;51.456;7.244;2023-11-21T10:11:17;8.80;99.90
48998;DHT22;34807;51.456;7.244;2023-11-21T10:13:43;8.80;99.90
48998;DHT22;34807;51.456;7.244;2023-11-21T10:16:11;8.90;99.90
48998;DHT22;34807;51.456;7.244;2023-11-21T10:18:39;8.90;99.90
48998;DHT22;34807;51.456;7.244;2023-11-21T10:21:06;8.90;99.90
48998;DHT22;34807;51.456;7.244;2023-11-21T10:23:32;8.90;99.90
48998;DHT22;34807;51.456;7.244;2023-11-21T10:25:57;8.90;99.90
48998;DHT22;34807;51.456;7.244;2023-11-21T10:28:24;8.90;99.90
48998;DHT22;34807;51.456;7.244;2023-11-21T10:30:50;8.90;99.90
48998;DHT22;34807;51.456;7.244;2023-11-21T10:33:15;8.90;99.90
48998;DHT22;34807;51.456;7.244;2023-11-21T10:38:07;8.90;99.90
48998;DHT22;34807;51.456;7.244;2023-11-21T10:40:38;9.00;99.90
48998;DHT22;34807;51.456;7.244;2023-11-21T10:43:10;9.10;99.90
48998;DHT22;34807;51.456;7.244;2023-11-21T10:45:39;9.20;99.90
48998;DHT22;34807;51.456;7.244;2023-11-21T10:48:05;9.20;99.90
48998;DHT22;34807;51.456;7.244;2023-11-21T10:50:32;9.20;99.90
48998;DHT22;34807;51.456;7.244;2023-11-21T10:52:58;9.30;99.90
48998;DHT22;34807;51.456;7.244;2023-11-21T10:55:23;9.30;99.90
48998;DHT22;34807;51.456;7.244;2023-11-21T10:57:53;9.30;99.90
48998;DHT22;34807;51.456;7.244;2023-11-21T11:00:19;9.30;99.90
48998;DHT22;34807;51.456;7.244;2023-11-21T11:02:50;9.30;99.90
48998;DHT22;34807;51.456;7.244;2023-11-21T11:05:17;9.30;99.90
48998;DHT22;34807;51.456;7.244;2023-11-21T11:07:44;9.40;99.90
48998;DHT22;34807;51.456;7.244;2023-11-21T11:10:10;9.40;99.90
48998;DHT22;34807;51.456;7.244;2023-11-21T11:12:41;9.40;99.90
48998;DHT22;34807;51.456;7.244;2023-11-21T11:15:07;9.40;99.90
48998;DHT22;34807;51.456;7.244;2023-11-21T11:17:36;9.40;99.90
48998;DHT22;34807;51.456;7.244;2023-11-21T11:20:04;9.40;99.90
48998;DHT22;34807;51.456;7.244;2023-11-21T11:25:20;9.40;99.90
48998;DHT22;34807;51.456;7.244;2023-11-21T11:38:23;9.60;99.90
48998;DHT22;34807;51.456;7.244;2023-11-21T11:40:51;9.60;99.90
48998;DHT22;34807;51.456;7.244;2023-11-21T11:43:24;9.60;99.90
48998;DHT22;34807;51.456;7.244;2023-11-21T11:45:49;9.50;99.90
48998;DHT22;34807;51.456;7.244;2023-11-21T11:48:17;9.60;99.90
48998;DHT22;34807;51.456;7.244;2023-11-21T11:53:33;9.60;99.90
48998;DHT22;34807;51.456;7.244;2023-11-21T11:56:18;9.60;99.90
48998;DHT22;34807;51.456;7.244;2023-11-21T11:58:44;9.60;99.90
48998;DHT22;34807;51.456;7.244;2023-11-21T12:01:11;9.60;99.90
48998;DHT22;34807;51.456;7.244;2023-11-21T12:03:37;9.60;99.90
48998;DHT22;34807;51.456;7.244;2023-11-21T12:06:02;9.60;99.90
48998;DHT22;34807;51.456;7.244;2023-11-21T12:08:28;9.60;99.90
48998;DHT22;34807;51.456;7.244;2023-11-21T12:10:56;9.60;99.90
48998;DHT22;34807;51.456;7.244;2023-11-21T12:13:22;9.60;99.90
48998;DHT22;34807;51.456;7.244;2023-11-21T12:15:48;9.60;99.90
48998;DHT22;34807;51.456;7.244;2023-11-21T12:18:14;9.60;99.90
48998;DHT22;34807;51.456;7.244;2023-11-21T12:20:39;9.60;99.90
48998;DHT22;34807;51.456;7.244;2023-11-21T12:23:06;9.60;99.90
48998;DHT22;34807;51.456;7.244;2023-11-21T12:25:34;9.60;99.90
48998;DHT22;34807;51.456;7.244;2023-11-21T12:28:02;9.60;99.90
48998;DHT22;34807;51.456;7.244;2023-11-21T12:30:35;9.60;99.90
48998;DHT22;34807;51.456;7.244;2023-11-21T12:33:01;9.60;99.90
48998;DHT22;34807;51.456;7.244;2023-11-21T12:35:28;9.60;99.90
48998;DHT22;34807;51.456;7.244;2023-11-21T12:37:54;9.60;99.90
48998;DHT22;34807;51.456;7.244;2023-11-21T12:40:20;9.60;99.90
48998;DHT22;34807;51.456;7.244;2023-11-21T12:42:48;9.60;99.90
48998;DHT22;34807;51.456;7.244;2023-11-21T12:47:43;9.50;99.90
48998;DHT22;34807;51.456;7.244;2023-11-21T12:50:09;9.60;99.90
48998;DHT22;34807;51.456;7.244;2023-11-21T12:52:42;9.50;99.90
48998;DHT22;34807;51.456;7.244;2023-11-21T12:55:13;9.60;99.90
48998;DHT22;34807;51.456;7.244;2023-11-21T12:57:44;9.60;99.90
48998;DHT22;34807;51.456;7.244;2023-11-21T13:00:10;9.60;99.90
48998;DHT22;34807;51.456;7.244;2023-11-21T13:02:41;9.50;99.90
48998;DHT22;34807;51.456;7.244;2023-11-21T13:05:08;9.50;99.90
48998;DHT22;34807;51.456;7.244;2023-11-21T13:07:43;9.50;99.90
48998;DHT22;34807;51.456;7.244;2023-11-21T13:10:16;9.50;99.90
48998;DHT22;34807;51.456;7.244;2023-11-21T13:12:45;9.50;99.90
48998;DHT22;34807;51.456;7.244;2023-11-21T13:15:17;9.50;99.90
48998;DHT22;34807;51.456;7.244;2023-11-21T13:17:43;9.50;99.90
48998;DHT22;34807;51.456;7.244;2023-11-21T13:20:10;9.50;99.90
48998;DHT22;34807;51.456;7.244;2023-11-21T13:25:14;9.50;99.90
48998;DHT22;34807;51.456;7.244;2023-11-21T13:27:40;9.50;99.90
48998;DHT22;34807;51.456;7.244;2023-11-21T13:30:08;9.50;99.90
48998;DHT22;34807;51.456;7.244;2023-11-21T13:32:33;9.50;99.90
48998;DHT22;34807;51.456;7.244;2023-11-21T13:34:59;9.50;99.90
48998;DHT22;34807;51.456;7.244;2023-11-21T13:37:25;9.50;99.90
48998;DHT22;34807;51.456;7.244;2023-11-21T13:39:53;9.50;99.90
48998;DHT22;34807;51.456;7.244;2023-11-21T13:42:20;9.50;99.90
48998;DHT22;34807;51.456;7.244;2023-11-21T13:44:48;9.40;99.90
48998;DHT22;34807;51.456;7.244;2023-11-21T13:47:14;9.40;99.90
48998;DHT22;34807;51.456;7.244;2023-11-21T13:49:40;9.40;99.90
48998;DHT22;34807;51.456;7.244;2023-11-21T13:52:07;9.40;99.90
48998;DHT22;34807;51.456;7.244;2023-11-21T13:54:32;9.40;99.90
48998;DHT22;34807;51.456;7.244;2023-11-21T13:56:58;9.40;99.90
48998;DHT22;34807;51.456;7.244;2023-11-21T13:59:25;9.40;99.90
48998;DHT22;34807;51.456;7.244;2023-11-21T14:01:53;9.40;99.90
48998;DHT22;34807;51.456;7.244;2023-11-21T14:04:20;9.40;99.90
48998;DHT22;34807;51.456;7.244;2023-11-21T14:07:00;9.40;99.90
48998;DHT22;34807;51.456;7.244;2023-11-21T14:09:36;9.40;99.90
48998;DHT22;34807;51.456;7.244;2023-11-21T14:12:09;9.40;99.90
48998;DHT22;34807;51.456;7.244;2023-11-21T14:14:37;9.40;99.90
48998;DHT22;34807;51.456;7.244;2023-11-21T14:17:04;9.40;99.90
48998;DHT22;34807;51.456;7.244;2023-11-21T14:19:32;9.40;99.90
48998;DHT22;34807;51.456;7.244;2023-11-21T14:21:59;9.40;99.90
48998;DHT22;34807;51.456;7.244;2023-11-21T14:24:24;9.40;99.90
48998;DHT22;34807;51.456;7.244;2023-11-21T14:26:50;9.40;99.90
48998;DHT22;34807;51.456;7.244;2023-11-21T14:29:17;9.40;99.90
48998;DHT22;34807;51.456;7.244;2023-11-21T14:31:48;9.40;99.90
48998;DHT22;34807;51.456;7.244;2023-11-21T14:34:15;9.40;99.90
48998;DHT22;34807;51.456;7.244;2023-11-21T14:36:41;9.40;99.90
48998;DHT22;34807;51.456;7.244;2023-11-21T14:39:06;9.40;99.90
48998;DHT22;34807;51.456;7.244;2023-11-21T14:41:46;9.40;99.90
48998;DHT22;34807;51.456;7.244;2023-11-21T14:44:12;9.30;99.90
48998;DHT22;34807;51.456;7.244;2023-11-21T14:46:39;9.40;99.90
48998;DHT22;34807;51.456;7.244;2023-11-21T14:49:08;9.40;99.90
48998;DHT22;34807;51.456;7.244;2023-11-21T14:51:54;9.40;99.90
48998;DHT22;34807;51.456;7.244;2023-11-21T14:54:29;9.40;99.90
48998;DHT22;34807;51.456;7.244;2023-11-21T14:57:11;9.40;99.90
48998;DHT22;34807;51.456;7.244;2023-11-21T14:59:46;9.30;99.90
48998;DHT22;34807;51.456;7.244;2023-11-21T15:02:18;9.30;99.90
48998;DHT22;34807;51.456;7.244;2023-11-21T15:04:48;9.30;99.90
48998;DHT22;34807;51.456;7.244;2023-11-21T15:07:17;9.30;99.90
48998;DHT22;34807;51.456;7.244;2023-11-21T15:09:42;9.40;99.90
48998;DHT22;34807;51.456;7.244;2023-11-21T15:12:08;9.30;99.90
48998;DHT22;34807;51.456;7.244;2023-11-21T15:14:41;9.30;99.90
48998;DHT22;34807;51.456;7.244;2023-11-21T15:17:07;9.30;99.90
48998;DHT22;34807;51.456;7.244;2023-11-21T15:19:32;9.30;99.90
48998;DHT22;34807;51.456;7.244;2023-11-21T15:21:59;9.30;99.90
48998;DHT22;34807;51.456;7.244;2023-11-21T15:24:25;9.30;99.90
48998;DHT22;34807;51.456;7.244;2023-11-21T15:26:50;9.30;99.90
48998;DHT22;34807;51.456;7.244;2023-11-21T15:29:16;9.30;99.90
48998;DHT22;34807;51.456;7.244;2023-11-21T15:31:42;9.30;99.90
48998;DHT22;34807;51.456;7.244;2023-11-21T15:34:13;9.30;99.90
48998;DHT22;34807;51.456;7.244;2023-11-21T15:36:38;9.20;99.90
48998;DHT22;34807;51.456;7.244;2023-11-21T15:39:04;9.30;99.90
48998;DHT22;34807;51.456;7.244;2023-11-21T15:41:30;9.30;99.90
48998;DHT22;34807;51.456;7.244;2023-11-21T15:43:55;9.30;99.90
48998;DHT22;34807;51.456;7.244;2023-11-21T15:46:21;9.20;99.90
48998;DHT22;34807;51.456;7.244;2023-11-21T15:48:47;9.20;99.90
48998;DHT22;34807;51.456;7.244;2023-11-21T15:51:19;9.20;99.90
48998;DHT22;34807;51.456;7.244;2023-11-21T15:53:45;9.20;99.90
48998;DHT22;34807;51.456;7.244;2023-11-21T15:56:10;9.20;99.90
48998;DHT22;34807;51.456;7.244;2023-11-21T15:58:41;9.20;99.90
48998;DHT22;34807;51.456;7.244;2023-11-21T16:01:08;9.20;99.90
48998;DHT22;34807;51.456;7.244;2023-11-21T16:03:38;9.20;99.90
48998;DHT22;34807;51.456;7.244;2023-11-21T16:06:03;9.20;99.90